Terminal Aerodrome Forecast
Issued by NWS

Home | Current Version | Previous Version | Graphics & Text | Print | Product List | Glossary On
Versions: 1 2 3 4 5 6 7 8 9 10 11 12 13 14 15 16 17 18 19 20 21 22 23 24 25 26 27 28 29 30 31 32 33
000
FTUS43 KABR 010933 AAA
TAFMBG
TAF AMD
KMBG 010933Z 0110/0206 09011KT 6SM BR BKN040
      TEMPO 0110/0113 1SM BR FEW040
     FM011300 12008KT P6SM SKC
     FM012200 03007KT P6SM VCSH OVC050
     FM020400 36006KT P6SM OVC150=

USA.gov is the U.S. government's official web portal to all federal, state and local government web resources and services.